Time;durP1;ratioP1;P1;durP2;ratioP2;P2;SDS_P1;SDS_P2;PMS_P1;PMS_P2;Temp;Humidity;BMP_temperature;BMP_pressure;BME280_temperature;BME280_humidity;BME280_pressure;Samples;Min_cycle;Max_cycle;Signal;HPM_P1;HPM_P2
2022/07/24 00:01:52;;;;;;;;;;;20.40;53.60;;;;;;5162055;27;20281;-51
2022/07/24 00:04:18;;;;;;;;;;;20.10;53.50;;;;;;5162830;27;19975;-47
2022/07/24 00:06:43;;;;;;;;;;;20.30;52.50;;;;;;5168998;27;19934;-48
2022/07/24 00:09:09;;;;;;;;;;;20.20;52.00;;;;;;5164066;27;19923;-45
2022/07/24 00:11:35;;;;;;;;;;;20.00;52.20;;;;;;5169200;27;19930;-50
2022/07/24 00:14:01;;;;;;;;;;;20.00;52.20;;;;;;5163421;27;19929;-48
2022/07/24 00:16:27;;;;;;;;;;;20.60;57.60;;;;;;5163656;27;20021;-46
2022/07/24 00:18:52;;;;;;;;;;;21.30;60.30;;;;;;5168520;27;19933;-47
2022/07/24 00:21:18;;;;;;;;;;;21.90;59.50;;;;;;5161590;27;19994;-48
2022/07/24 00:23:44;;;;;;;;;;;21.20;57.20;;;;;;5162927;27;19926;-49
2022/07/24 00:26:10;;;;;;;;;;;20.70;55.80;;;;;;5150118;27;20421;-47
2022/07/24 00:28:36;;;;;;;;;;;20.60;54.50;;;;;;5163436;27;19923;-47
2022/07/24 00:31:02;;;;;;;;;;;20.30;53.70;;;;;;5168780;27;19927;-47
2022/07/24 00:33:28;;;;;;;;;;;20.20;53.30;;;;;;5163115;27;19922;-46
2022/07/24 00:35:53;;;;;;;;;;;20.00;53.00;;;;;;5162928;27;19923;-47
2022/07/24 00:38:19;;;;;;;;;;;20.10;52.20;;;;;;5166308;27;19922;-47
2022/07/24 00:40:45;;;;;;;;;;;20.10;55.00;;;;;;5162011;27;19926;-46
2022/07/24 00:43:12;;;;;;;;;;;20.80;59.80;;;;;;5163113;27;20421;-48
2022/07/24 00:45:37;;;;;;;;;;;21.60;60.30;;;;;;5168612;27;19961;-47
2022/07/24 00:48:03;;;;;;;;;;;21.60;58.40;;;;;;5163182;27;19927;-48
2022/07/24 00:50:29;;;;;;;;;;;21.00;56.30;;;;;;5168336;27;19923;-45
2022/07/24 00:52:55;;;;;;;;;;;20.60;55.20;;;;;;5163251;27;19930;-44
2022/07/24 00:55:21;;;;;;;;;;;20.50;54.20;;;;;;5162633;27;19923;-45
2022/07/24 00:57:48;;;;;;;;;;;20.30;53.40;;;;;;5166605;27;19926;-48
2022/07/24 01:00:15;;;;;;;;;;;20.20;53.00;;;;;;5158997;27;19923;-48
2022/07/24 01:02:41;;;;;;;;;;;20.10;52.90;;;;;;5162516;27;19955;-47
2022/07/24 01:05:07;;;;;;;;;;;19.80;52.60;;;;;;5168201;27;19970;-48
2022/07/24 01:07:33;;;;;;;;;;;20.00;53.40;;;;;;5162671;27;20017;-47
2022/07/24 01:09:59;;;;;;;;;;;20.60;59.50;;;;;;5164824;27;19926;-55
2022/07/24 01:12:26;;;;;;;;;;;21.30;60.60;;;;;;5165958;27;20003;-46
2022/07/24 01:14:52;;;;;;;;;;;21.60;58.90;;;;;;5160938;27;19931;-49
2022/07/24 01:17:18;;;;;;;;;;;20.90;56.90;;;;;;5166740;27;19979;-48
2022/07/24 01:19:43;;;;;;;;;;;20.60;55.00;;;;;;5162480;27;19934;-47
2022/07/24 01:22:09;;;;;;;;;;;20.30;54.50;;;;;;5162389;27;19931;-49
2022/07/24 01:24:35;;;;;;;;;;;20.30;53.40;;;;;;5168089;27;19930;-46
2022/07/24 01:27:01;;;;;;;;;;;20.10;53.00;;;;;;5162346;27;19976;-47
2022/07/24 01:29:26;;;;;;;;;;;20.00;52.60;;;;;;5143582;27;19923;-50
2022/07/24 01:31:52;;;;;;;;;;;20.20;56.80;;;;;;5167900;27;20056;-47
2022/07/24 01:34:18;;;;;;;;;;;21.00;60.10;;;;;;5160536;27;19931;-49
2022/07/24 01:36:44;;;;;;;;;;;21.70;60.50;;;;;;5167278;27;20017;-48
2022/07/24 01:39:10;;;;;;;;;;;21.20;58.40;;;;;;5162124;27;19927;-45
2022/07/24 01:41:35;;;;;;;;;;;20.80;56.30;;;;;;5162095;27;20021;-46
2022/07/24 01:44:01;;;;;;;;;;;20.30;55.40;;;;;;5167645;27;20370;-46
2022/07/24 01:46:27;;;;;;;;;;;20.30;54.10;;;;;;5161573;27;20365;-49
2022/07/24 01:48:53;;;;;;;;;;;20.20;53.40;;;;;;5142294;27;20218;-47
2022/07/24 01:51:18;;;;;;;;;;;20.20;53.00;;;;;;5147705;27;19927;-48
2022/07/24 01:53:44;;;;;;;;;;;19.80;53.00;;;;;;5160847;27;19922;-46
2022/07/24 01:56:10;;;;;;;;;;;19.80;52.30;;;;;;5167368;27;20297;-47
2022/07/24 01:58:39;;;;;;;;;;;19.90;54.70;;;;;;5162062;27;19923;-47
2022/07/24 02:01:05;;;;;;;;;;;20.70;59.90;;;;;;5162350;27;20052;-49
2022/07/24 02:03:31;;;;;;;;;;;21.30;61.20;;;;;;5167369;27;19933;-49
2022/07/24 02:05:57;;;;;;;;;;;21.70;59.10;;;;;;5161915;27;19923;-46
2022/07/24 02:08:22;;;;;;;;;;;21.00;57.20;;;;;;5161764;27;19947;-46
2022/07/24 02:10:48;;;;;;;;;;;20.70;55.70;;;;;;5165238;27;19926;-45
2022/07/24 02:13:14;;;;;;;;;;;20.50;54.60;;;;;;5160936;27;19945;-47
2022/07/24 02:15:39;;;;;;;;;;;20.30;53.90;;;;;;5167072;27;19927;-51
2022/07/24 02:18:06;;;;;;;;;;;20.20;53.10;;;;;;5162006;27;19923;-47
2022/07/24 02:20:31;;;;;;;;;;;20.00;52.50;;;;;;5125913;27;20013;-46
2022/07/24 02:22:57;;;;;;;;;;;20.00;53.90;;;;;;5147995;27;19929;-47
2022/07/24 02:25:23;;;;;;;;;;;20.60;60.00;;;;;;5161642;27;19972;-48
2022/07/24 02:27:49;;;;;;;;;;;21.30;61.40;;;;;;5160902;27;20200;-49
2022/07/24 02:30:16;;;;;;;;;;;21.60;59.70;;;;;;5165302;27;20271;-46
2022/07/24 02:32:42;;;;;;;;;;;20.80;57.90;;;;;;5161200;27;20510;-48
2022/07/24 02:35:08;;;;;;;;;;;20.70;55.50;;;;;;5164243;27;19934;-55
2022/07/24 02:37:37;;;;;;;;;;;20.30;54.50;;;;;;5164761;27;19945;-48
2022/07/24 02:40:04;;;;;;;;;;;20.20;54.20;;;;;;5161326;27;19927;-49
2022/07/24 02:42:29;;;;;;;;;;;20.20;53.20;;;;;;5166669;27;19970;-47
2022/07/24 02:44:55;;;;;;;;;;;19.90;52.70;;;;;;5161238;27;20362;-48
2022/07/24 02:47:21;;;;;;;;;;;19.90;53.10;;;;;;5159499;27;19933;-50
2022/07/24 02:49:47;;;;;;;;;;;20.50;59.20;;;;;;5165837;27;19923;-51
2022/07/24 02:52:13;;;;;;;;;;;21.20;61.40;;;;;;5161238;27;19930;-46
2022/07/24 02:54:39;;;;;;;;;;;21.70;60.00;;;;;;5161256;27;20293;-47
2022/07/24 02:57:05;;;;;;;;;;;20.90;57.60;;;;;;5166777;27;19922;-49
2022/07/24 02:59:31;;;;;;;;;;;20.60;55.50;;;;;;5160940;27;19927;-47
2022/07/24 03:01:57;;;;;;;;;;;20.30;54.80;;;;;;5170092;27;19929;-47
2022/07/24 03:04:23;;;;;;;;;;;20.20;53.70;;;;;;5163882;27;19926;-50
2022/07/24 03:06:48;;;;;;;;;;;20.00;53.10;;;;;;5144444;27;19930;-46
2022/07/24 03:09:14;;;;;;;;;;;19.90;53.00;;;;;;5151367;27;20444;-49
2022/07/24 03:11:40;;;;;;;;;;;20.30;58.10;;;;;;5164695;27;20284;-47
2022/07/24 03:14:06;;;;;;;;;;;21.10;61.10;;;;;;5164546;27;19958;-46
2022/07/24 03:16:32;;;;;;;;;;;21.70;59.90;;;;;;5170089;27;20033;-49
2022/07/24 03:18:57;;;;;;;;;;;21.00;57.80;;;;;;5164448;27;19933;-48
2022/07/24 03:21:23;;;;;;;;;;;20.70;55.90;;;;;;5169861;27;19930;-48
2022/07/24 03:23:49;;;;;;;;;;;20.30;54.60;;;;;;5162306;27;19930;-47
2022/07/24 03:26:15;;;;;;;;;;;20.30;53.30;;;;;;5163266;27;20374;-49
2022/07/24 03:28:40;;;;;;;;;;;20.00;52.90;;;;;;5169708;27;19945;-47
2022/07/24 03:31:06;;;;;;;;;;;19.90;52.60;;;;;;5164490;27;19979;-46
2022/07/24 03:33:33;;;;;;;;;;;19.90;52.30;;;;;;5164542;27;19949;-51
2022/07/24 03:35:59;;;;;;;;;;;20.20;56.60;;;;;;5169518;27;19929;-51
2022/07/24 03:38:25;;;;;;;;;;;20.80;60.50;;;;;;5163961;27;20366;-47
2022/07/24 03:40:50;;;;;;;;;;;21.60;60.50;;;;;;5168748;27;19926;-53
2022/07/24 03:43:16;;;;;;;;;;;21.30;57.90;;;;;;5163005;27;19930;-49
2022/07/24 03:45:43;;;;;;;;;;;20.80;56.00;;;;;;5163679;27;19926;-46
2022/07/24 03:48:08;;;;;;;;;;;20.50;54.50;;;;;;5169496;27;19930;-46
2022/07/24 03:50:34;;;;;;;;;;;20.30;54.10;;;;;;5163945;27;19934;-46
2022/07/24 03:53:00;;;;;;;;;;;20.10;53.00;;;;;;5163955;27;19923;-47
2022/07/24 03:55:26;;;;;;;;;;;20.00;52.50;;;;;;5169019;27;19922;-46
2022/07/24 03:57:51;;;;;;;;;;;19.90;52.30;;;;;;5163917;27;19926;-51
2022/07/24 04:00:17;;;;;;;;;;;20.40;59.10;;;;;;5165127;27;19932;-54
2022/07/24 04:02:43;;;;;;;;;;;21.20;60.70;;;;;;5165293;27;19978;-50
2022/07/24 04:05:09;;;;;;;;;;;21.60;59.30;;;;;;5163444;27;19930;-46
2022/07/24 04:07:35;;;;;;;;;;;20.90;56.80;;;;;;5169086;27;19958;-48
2022/07/24 04:10:01;;;;;;;;;;;20.50;55.30;;;;;;5163744;27;19967;-47
2022/07/24 04:12:27;;;;;;;;;;;20.30;54.20;;;;;;5162620;27;19937;-52
2022/07/24 04:14:52;;;;;;;;;;;20.20;52.80;;;;;;5168984;27;20161;-47
2022/07/24 04:17:18;;;;;;;;;;;19.90;53.00;;;;;;5163327;27;19923;-48
2022/07/24 04:19:44;;;;;;;;;;;19.80;52.70;;;;;;5143463;27;19951;-54
2022/07/24 04:22:10;;;;;;;;;;;20.30;57.20;;;;;;5167921;27;19922;-50
2022/07/24 04:24:35;;;;;;;;;;;20.90;60.60;;;;;;5163469;27;19958;-51
2022/07/24 04:27:01;;;;;;;;;;;21.70;60.20;;;;;;5169015;27;19922;-47
2022/07/24 04:29:27;;;;;;;;;;;21.10;57.50;;;;;;5163327;27;20409;-48
2022/07/24 04:31:53;;;;;;;;;;;20.50;56.10;;;;;;5163090;27;19930;-48
2022/07/24 04:34:18;;;;;;;;;;;20.30;54.70;;;;;;5168767;27;20444;-46
2022/07/24 04:36:44;;;;;;;;;;;20.20;53.70;;;;;;5161921;27;19923;-50
2022/07/24 04:39:10;;;;;;;;;;;20.10;52.90;;;;;;5162006;27;20404;-49
2022/07/24 04:41:36;;;;;;;;;;;20.00;52.20;;;;;;5168503;27;20274;-51
2022/07/24 04:44:02;;;;;;;;;;;20.00;53.30;;;;;;5163058;27;19926;-47
2022/07/24 04:46:27;;;;;;;;;;;20.60;59.30;;;;;;5168561;27;19962;-49
2022/07/24 04:48:53;;;;;;;;;;;21.30;60.80;;;;;;5162898;27;19946;-46
2022/07/24 04:51:19;;;;;;;;;;;21.70;58.70;;;;;;5162869;27;19923;-48
2022/07/24 04:53:46;;;;;;;;;;;20.80;56.80;;;;;;5168286;27;19998;-48
2022/07/24 04:56:12;;;;;;;;;;;20.50;55.10;;;;;;5160959;27;19933;-55
2022/07/24 04:58:37;;;;;;;;;;;20.30;54.20;;;;;;5162190;27;20009;-49
2022/07/24 05:01:03;;;;;;;;;;;20.10;53.40;;;;;;5168296;27;19923;-46
2022/07/24 05:03:29;;;;;;;;;;;20.10;52.60;;;;;;5162765;27;19922;-45
2022/07/24 05:05:55;;;;;;;;;;;19.80;52.30;;;;;;5168483;27;20048;-48
2022/07/24 05:08:21;;;;;;;;;;;19.80;53.00;;;;;;5162565;27;20006;-46
2022/07/24 05:10:46;;;;;;;;;;;20.50;58.80;;;;;;5162434;27;19930;-48
2022/07/24 05:13:12;;;;;;;;;;;21.20;60.40;;;;;;5167034;27;19922;-52
2022/07/24 05:15:38;;;;;;;;;;;21.70;58.70;;;;;;5161259;27;19930;-50
2022/07/24 05:18:04;;;;;;;;;;;20.80;57.20;;;;;;5162063;27;20700;-49
2022/07/24 05:20:29;;;;;;;;;;;20.50;55.20;;;;;;5167987;27;19922;-47
2022/07/24 05:22:55;;;;;;;;;;;20.20;54.60;;;;;;5143598;27;19986;-49
2022/07/24 05:25:21;;;;;;;;;;;20.20;53.10;;;;;;5167496;27;19968;-55
2022/07/24 05:27:47;;;;;;;;;;;19.90;52.40;;;;;;5162925;27;19970;-48
2022/07/24 05:30:13;;;;;;;;;;;19.80;52.40;;;;;;5162374;27;19923;-47
2022/07/24 05:32:38;;;;;;;;;;;20.30;58.50;;;;;;5166053;27;19923;-47
2022/07/24 05:35:04;;;;;;;;;;;21.10;60.40;;;;;;5161711;27;19930;-48
2022/07/24 05:37:30;;;;;;;;;;;21.80;59.00;;;;;;5162130;27;20028;-45
2022/07/24 05:39:56;;;;;;;;;;;20.90;57.00;;;;;;5167840;27;20029;-48
2022/07/24 05:42:22;;;;;;;;;;;20.40;55.50;;;;;;5162252;27;19998;-47
2022/07/24 05:44:48;;;;;;;;;;;20.30;54.20;;;;;;5164886;27;19923;-56
2022/07/24 05:47:13;;;;;;;;;;;20.10;53.40;;;;;;5165186;27;19923;-47
2022/07/24 05:49:39;;;;;;;;;;;20.10;52.70;;;;;;5161457;27;20283;-47
2022/07/24 05:52:05;;;;;;;;;;;20.00;52.20;;;;;;5165454;27;19931;-48
2022/07/24 05:54:31;;;;;;;;;;;20.00;54.70;;;;;;5161538;27;19923;-51
2022/07/24 05:56:56;;;;;;;;;;;20.70;59.70;;;;;;5161888;27;19985;-52
2022/07/24 05:59:22;;;;;;;;;;;21.40;60.20;;;;;;5167695;27;19963;-46
2022/07/24 06:01:48;;;;;;;;;;;21.40;58.10;;;;;;5161966;27;19946;-49
2022/07/24 06:04:14;;;;;;;;;;;20.80;56.10;;;;;;5162703;27;19926;-57
2022/07/24 06:06:40;;;;;;;;;;;20.50;54.90;;;;;;5166519;27;19922;-49
2022/07/24 06:09:05;;;;;;;;;;;20.40;53.60;;;;;;5160203;27;19922;-49
2022/07/24 06:11:31;;;;;;;;;;;20.30;52.80;;;;;;5166187;27;19930;-48
2022/07/24 06:13:57;;;;;;;;;;;20.20;52.70;;;;;;5161844;27;19933;-46
2022/07/24 06:16:23;;;;;;;;;;;20.00;52.50;;;;;;5161973;27;19975;-49
2022/07/24 06:18:48;;;;;;;;;;;20.10;55.70;;;;;;5167330;27;19934;-47
2022/07/24 06:21:14;;;;;;;;;;;20.90;59.70;;;;;;5161637;27;19974;-48
2022/07/24 06:23:40;;;;;;;;;;;21.70;59.90;;;;;;5161396;27;20225;-46
2022/07/24 06:26:06;;;;;;;;;;;21.30;57.50;;;;;;5166865;27;19982;-45
2022/07/24 06:28:31;;;;;;;;;;;20.80;56.00;;;;;;5159801;27;19927;-47
2022/07/24 06:30:57;;;;;;;;;;;20.60;54.60;;;;;;5166604;27;20385;-47
2022/07/24 06:33:23;;;;;;;;;;;20.30;54.00;;;;;;5161664;27;19966;-49
2022/07/24 06:35:49;;;;;;;;;;;20.10;53.20;;;;;;5163338;27;20268;-50
2022/07/24 06:38:16;;;;;;;;;;;19.90;53.10;;;;;;5170825;27;20454;-48
2022/07/24 06:40:42;;;;;;;;;;;20.10;52.30;;;;;;5164988;27;19922;-47
2022/07/24 06:43:08;;;;;;;;;;;20.00;53.60;;;;;;5164999;27;20299;-48
2022/07/24 06:45:36;;;;;;;;;;;20.60;59.30;;;;;;5169300;27;20293;-52
2022/07/24 06:48:02;;;;;;;;;;;21.30;60.30;;;;;;5163924;27;19922;-46
2022/07/24 06:50:27;;;;;;;;;;;21.90;58.50;;;;;;5170197;27;19958;-46
2022/07/24 06:52:53;;;;;;;;;;;21.20;56.40;;;;;;5165152;27;20378;-46
2022/07/24 06:55:19;;;;;;;;;;;20.80;55.00;;;;;;5164978;27;20365;-46
2022/07/24 06:57:45;;;;;;;;;;;20.40;54.40;;;;;;5151480;27;19926;-48
2022/07/24 07:00:11;;;;;;;;;;;20.30;53.50;;;;;;5164629;27;20330;-48
2022/07/24 07:02:37;;;;;;;;;;;20.10;53.20;;;;;;5164829;27;20180;-50
2022/07/24 07:05:06;;;;;;;;;;;20.00;52.70;;;;;;5168416;27;20267;-46
2022/07/24 07:07:31;;;;;;;;;;;20.00;52.40;;;;;;5145644;27;19922;-47
2022/07/24 07:09:57;;;;;;;;;;;20.10;55.50;;;;;;5148829;27;19937;-52
2022/07/24 07:12:23;;;;;;;;;;;20.80;59.70;;;;;;5167349;27;19923;-47
2022/07/24 07:14:49;;;;;;;;;;;21.60;60.00;;;;;;5164771;27;20290;-47
2022/07/24 07:17:17;;;;;;;;;;;21.40;57.70;;;;;;5169720;27;19927;-48
2022/07/24 07:19:43;;;;;;;;;;;20.90;55.90;;;;;;5164431;27;20781;-48
2022/07/24 07:22:09;;;;;;;;;;;20.60;54.80;;;;;;5163418;27;19965;-47
2022/07/24 07:24:35;;;;;;;;;;;20.60;53.80;;;;;;5168535;27;19929;-48
2022/07/24 07:27:01;;;;;;;;;;;20.40;53.40;;;;;;5164234;27;20305;-45
2022/07/24 07:29:26;;;;;;;;;;;20.30;52.90;;;;;;5164277;27;19927;-48
2022/07/24 07:31:52;;;;;;;;;;;20.30;52.70;;;;;;5169877;27;19927;-46
2022/07/24 07:34:18;;;;;;;;;;;20.00;52.50;;;;;;5163936;27;19929;-50
2022/07/24 07:36:44;;;;;;;;;;;20.00;52.70;;;;;;5169489;27;19922;-46
2022/07/24 07:39:10;;;;;;;;;;;20.00;52.40;;;;;;5164140;27;19930;-46
2022/07/24 07:41:35;;;;;;;;;;;20.30;56.30;;;;;;5158042;27;19923;-48
2022/07/24 07:44:01;;;;;;;;;;;21.00;60.20;;;;;;5168560;27;19950;-47
2022/07/24 07:46:27;;;;;;;;;;;21.80;60.40;;;;;;5163004;27;19930;-47
2022/07/24 07:48:53;;;;;;;;;;;21.40;58.20;;;;;;5163660;27;20150;-47
2022/07/24 07:51:19;;;;;;;;;;;20.90;56.60;;;;;;5169605;27;19923;-47
2022/07/24 07:53:44;;;;;;;;;;;20.70;55.20;;;;;;5163536;27;19923;-47
2022/07/24 07:56:10;;;;;;;;;;;20.50;54.20;;;;;;5169493;27;19934;-46
2022/07/24 07:58:36;;;;;;;;;;;20.30;53.90;;;;;;5162776;27;20002;-46
2022/07/24 08:01:02;;;;;;;;;;;20.30;53.20;;;;;;5162017;27;20305;-47
2022/07/24 08:03:28;;;;;;;;;;;20.10;52.90;;;;;;5150073;27;19922;-48
2022/07/24 08:05:53;;;;;;;;;;;20.20;52.70;;;;;;5163763;27;19923;-48
2022/07/24 08:08:19;;;;;;;;;;;20.10;52.60;;;;;;5163783;27;19931;-50
2022/07/24 08:10:45;;;;;;;;;;;20.30;55.10;;;;;;5169059;27;19923;-48
2022/07/24 08:13:12;;;;;;;;;;;20.80;60.30;;;;;;5163609;27;19966;-49
2022/07/24 08:15:38;;;;;;;;;;;21.60;60.60;;;;;;5168969;27;20014;-45
2022/07/24 08:18:03;;;;;;;;;;;21.30;58.00;;;;;;5161934;27;19923;-46
2022/07/24 08:20:30;;;;;;;;;;;20.90;56.20;;;;;;5144079;27;20017;-47
2022/07/24 08:22:55;;;;;;;;;;;20.60;55.20;;;;;;5168778;27;20274;-47
2022/07/24 08:25:21;;;;;;;;;;;20.80;53.90;;;;;;5163540;27;19930;-45
2022/07/24 08:27:47;;;;;;;;;;;20.30;53.30;;;;;;5144998;27;20366;-46
2022/07/24 08:30:13;;;;;;;;;;;20.20;53.70;;;;;;5168513;27;20358;-47
2022/07/24 08:32:39;;;;;;;;;;;20.10;53.00;;;;;;5163140;27;20365;-47
2022/07/24 08:35:05;;;;;;;;;;;20.20;52.70;;;;;;5166151;27;19923;-54
2022/07/24 08:37:37;;;;;;;;;;;20.10;52.40;;;;;;5163464;27;20429;-47
2022/07/24 08:40:03;;;;;;;;;;;20.10;52.30;;;;;;5163011;27;19975;-49
2022/07/24 08:42:29;;;;;;;;;;;20.30;57.40;;;;;;5168592;27;19927;-48
2022/07/24 08:44:55;;;;;;;;;;;21.00;60.50;;;;;;5163133;27;19971;-50
2022/07/24 08:47:21;;;;;;;;;;;21.80;60.30;;;;;;5162923;27;20142;-48
2022/07/24 08:49:46;;;;;;;;;;;21.30;57.60;;;;;;5168345;27;19923;-46
2022/07/24 08:52:14;;;;;;;;;;;20.80;55.90;;;;;;5162854;27;20370;-47
2022/07/24 08:54:41;;;;;;;;;;;20.80;54.50;;;;;;5161263;27;19929;-47
2022/07/24 08:57:07;;;;;;;;;;;20.50;54.10;;;;;;5167450;27;19923;-49
2022/07/24 08:59:34;;;;;;;;;;;20.40;53.50;;;;;;5162343;27;20294;-45
2022/07/24 09:02:00;;;;;;;;;;;20.30;52.90;;;;;;5168624;27;20355;-46
2022/07/24 09:04:38;;;;;;;;;;;20.10;52.70;;;;;;5162837;27;19977;-46
2022/07/24 09:07:07;;;;;;;;;;;20.10;52.70;;;;;;5162429;27;19929;-45
2022/07/24 09:09:33;;;;;;;;;;;20.10;52.20;;;;;;5168225;27;19972;-48
2022/07/24 09:12:06;;;;;;;;;;;20.30;56.30;;;;;;5161923;27;19929;-50
2022/07/24 09:14:38;;;;;;;;;;;21.10;59.50;;;;;;5161273;27;19922;-46
2022/07/24 09:17:05;;;;;;;;;;;21.80;59.70;;;;;;5168056;27;19927;-49
2022/07/24 09:19:31;;;;;;;;;;;21.30;57.10;;;;;;5162639;27;20021;-46
2022/07/24 09:21:57;;;;;;;;;;;20.90;55.60;;;;;;5143948;27;19980;-45
2022/07/24 09:24:23;;;;;;;;;;;20.60;54.70;;;;;;5167694;27;19934;-49
2022/07/24 09:26:49;;;;;;;;;;;20.50;53.80;;;;;;5162317;27;19994;-47
2022/07/24 09:29:15;;;;;;;;;;;20.50;53.20;;;;;;5166757;27;19927;-56
2022/07/24 09:31:54;;;;;;;;;;;20.50;52.80;;;;;;5161854;27;20333;-47
2022/07/24 09:34:20;;;;;;;;;;;20.20;53.00;;;;;;5161891;27;19933;-45
2022/07/24 09:36:58;;;;;;;;;;;20.10;53.10;;;;;;5167697;27;19933;-47
2022/07/24 09:39:25;;;;;;;;;;;20.20;52.80;;;;;;5163073;27;19929;-48
2022/07/24 09:41:52;;;;;;;;;;;20.20;52.20;;;;;;5162329;27;19929;-53
2022/07/24 09:44:17;;;;;;;;;;;20.20;54.60;;;;;;5167462;27;20350;-47
2022/07/24 09:46:47;;;;;;;;;;;20.90;59.00;;;;;;5162261;27;19926;-47
2022/07/24 09:49:18;;;;;;;;;;;21.60;59.50;;;;;;5160808;27;19930;-46
2022/07/24 09:51:43;;;;;;;;;;;21.40;57.10;;;;;;5166349;27;19926;-46
2022/07/24 09:54:09;;;;;;;;;;;21.00;55.70;;;;;;5142204;27;19930;-47
2022/07/24 09:56:35;;;;;;;;;;;20.60;54.80;;;;;;5162042;27;19966;-47
2022/07/24 09:59:07;;;;;;;;;;;20.60;53.60;;;;;;5167668;27;20365;-46
2022/07/24 10:01:33;;;;;;;;;;;20.50;52.90;;;;;;5161687;27;19926;-47
2022/07/24 10:04:00;;;;;;;;;;;20.20;52.90;;;;;;5167240;27;21034;-48
2022/07/24 10:06:26;;;;;;;;;;;20.10;53.10;;;;;;5161476;27;20296;-50
2022/07/24 10:08:52;;;;;;;;;;;20.20;52.40;;;;;;5160011;27;19933;-51
2022/07/24 10:11:18;;;;;;;;;;;19.90;52.50;;;;;;5165659;27;20955;-46
2022/07/24 10:13:44;;;;;;;;;;;20.00;52.60;;;;;;5161670;27;20018;-45
2022/07/24 10:16:16;;;;;;;;;;;20.20;52.00;;;;;;5161808;27;20029;-48
2022/07/24 10:18:46;;;;;;;;;;;20.40;56.30;;;;;;5167309;27;20285;-47
2022/07/24 10:21:14;;;;;;;;;;;21.30;58.80;;;;;;5161468;27;19926;-47
2022/07/24 10:23:56;;;;;;;;;;;21.90;58.30;;;;;;5161379;27;20063;-45
2022/07/24 10:26:30;;;;;;;;;;;21.30;56.40;;;;;;5146922;27;19927;-51
2022/07/24 10:28:56;;;;;;;;;;;20.90;54.90;;;;;;5142147;27;20062;-47
2022/07/24 10:31:22;;;;;;;;;;;20.60;54.10;;;;;;5143104;27;19929;-54
2022/07/24 10:33:48;;;;;;;;;;;20.50;53.20;;;;;;5166875;27;19923;-51
2022/07/24 10:36:16;;;;;;;;;;;20.40;52.80;;;;;;5161674;27;20309;-47
2022/07/24 10:38:43;;;;;;;;;;;20.30;52.70;;;;;;5166915;27;19929;-49
2022/07/24 10:41:12;;;;;;;;;;;20.30;52.40;;;;;;5161542;27;19975;-46
2022/07/24 10:43:37;;;;;;;;;;;20.30;52.30;;;;;;5160817;27;20274;-45
2022/07/24 10:46:03;;;;;;;;;;;20.20;52.30;;;;;;5165073;27;19942;-46
2022/07/24 10:48:31;;;;;;;;;;;20.20;52.00;;;;;;5161239;27;20374;-46
2022/07/24 10:50:56;;;;;;;;;;;20.20;51.90;;;;;;5161296;27;20022;-47
2022/07/24 10:53:22;;;;;;;;;;;20.40;56.70;;;;;;5148387;27;20877;-47
2022/07/24 10:55:48;;;;;;;;;;;21.20;58.70;;;;;;5161277;27;19926;-47
2022/07/24 10:58:15;;;;;;;;;;;21.90;58.20;;;;;;5166734;27;20389;-46
2022/07/24 11:00:43;;;;;;;;;;;21.30;56.40;;;;;;5161633;27;20316;-50
2022/07/24 11:03:19;;;;;;;;;;;20.80;55.00;;;;;;5159479;27;19949;-48
2022/07/24 11:06:01;;;;;;;;;;;20.70;54.00;;;;;;5165200;27;21356;-46
2022/07/24 11:08:31;;;;;;;;;;;20.70;53.30;;;;;;5162108;27;20075;-45
2022/07/24 11:10:58;;;;;;;;;;;20.40;53.20;;;;;;5161104;27;19930;-49
2022/07/24 11:13:33;;;;;;;;;;;20.50;52.30;;;;;;5166572;27;20439;-49
2022/07/24 11:16:11;;;;;;;;;;;20.30;52.40;;;;;;5160597;27;20401;-47
2022/07/24 11:18:37;;;;;;;;;;;20.30;52.30;;;;;;5160812;27;19945;-46
2022/07/24 11:21:03;;;;;;;;;;;20.30;52.20;;;;;;5165537;27;20482;-45
2022/07/24 11:23:29;;;;;;;;;;;20.20;52.00;;;;;;5163118;27;19970;-47
2022/07/24 11:26:14;;;;;;;;;;;20.20;51.80;;;;;;5164165;27;20267;-47
2022/07/24 11:28:40;;;;;;;;;;;20.50;57.10;;;;;;5170006;27;19926;-50
2022/07/24 11:31:06;;;;;;;;;;;21.40;58.80;;;;;;5164387;27;19979;-47
2022/07/24 11:33:32;;;;;;;;;;;21.80;57.40;;;;;;5145301;27;19957;-47
2022/07/24 11:35:57;;;;;;;;;;;21.10;55.80;;;;;;5129628;27;20062;-49
2022/07/24 11:38:30;;;;;;;;;;;20.80;54.70;;;;;;5164029;27;20378;-47
2022/07/24 11:41:05;;;;;;;;;;;20.80;53.50;;;;;;5165410;27;20381;-57
2022/07/24 11:43:30;;;;;;;;;;;20.50;53.20;;;;;;5169389;27;19927;-49
2022/07/24 11:45:56;;;;;;;;;;;20.50;52.60;;;;;;5145163;27;19927;-48
2022/07/24 11:48:22;;;;;;;;;;;20.50;52.30;;;;;;5169536;27;20370;-46
2022/07/24 11:50:48;;;;;;;;;;;20.30;52.20;;;;;;5164134;27;20038;-49
2022/07/24 11:53:13;;;;;;;;;;;20.30;52.10;;;;;;5163807;27;19930;-46
2022/07/24 11:55:39;;;;;;;;;;;20.20;51.80;;;;;;5169375;27;20392;-46
2022/07/24 11:58:05;;;;;;;;;;;20.20;52.00;;;;;;5143741;27;19982;-48
2022/07/24 12:00:31;;;;;;;;;;;20.20;52.10;;;;;;5162807;27;20155;-45
2022/07/24 12:02:57;;;;;;;;;;;20.20;51.80;;;;;;5169147;27;19971;-46
2022/07/24 12:05:27;;;;;;;;;;;20.00;52.10;;;;;;5163822;27;19933;-48
2022/07/24 12:07:53;;;;;;;;;;;20.00;53.60;;;;;;5169277;27;20009;-48
2022/07/24 12:10:20;;;;;;;;;;;20.80;57.70;;;;;;5163531;27;20026;-46
2022/07/24 12:12:46;;;;;;;;;;;21.60;58.20;;;;;;5145135;27;20445;-48
2022/07/24 12:15:13;;;;;;;;;;;21.80;56.80;;;;;;5132849;27;20354;-48
2022/07/24 12:17:57;;;;;;;;;;;21.20;55.40;;;;;;5161911;27;19929;-47
2022/07/24 12:20:24;;;;;;;;;;;20.90;54.20;;;;;;5163300;27;20017;-50
2022/07/24 12:22:50;;;;;;;;;;;20.60;53.80;;;;;;5150451;27;19930;-45
2022/07/24 12:25:16;;;;;;;;;;;20.70;52.70;;;;;;5144976;27;19927;-46
2022/07/24 12:27:42;;;;;;;;;;;20.50;52.60;;;;;;5163470;27;19945;-46
2022/07/24 12:30:21;;;;;;;;;;;20.60;52.10;;;;;;5168746;27;20390;-48
2022/07/24 12:32:54;;;;;;;;;;;20.40;52.20;;;;;;5162372;27;19927;-47
2022/07/24 12:35:20;;;;;;;;;;;20.30;52.20;;;;;;5161784;27;20406;-52
2022/07/24 12:37:46;;;;;;;;;;;20.30;52.00;;;;;;5168077;27;19926;-47
2022/07/24 12:40:21;;;;;;;;;;;20.20;52.00;;;;;;5144744;27;19927;-50
2022/07/24 12:42:47;;;;;;;;;;;20.40;51.80;;;;;;5168213;27;20457;-54
2022/07/24 12:45:13;;;;;;;;;;;20.30;51.50;;;;;;5145443;27;19929;-46
2022/07/24 12:47:57;;;;;;;;;;;20.30;51.40;;;;;;5162947;27;19923;-47
2022/07/24 12:50:23;;;;;;;;;;;20.10;52.00;;;;;;5168515;27;19944;-45
2022/07/24 12:53:01;;;;;;;;;;;20.10;51.80;;;;;;5161528;27;19926;-47
2022/07/24 12:55:27;;;;;;;;;;;20.20;53.60;;;;;;5125882;27;19931;-46
2022/07/24 12:57:57;;;;;;;;;;;21.10;57.10;;;;;;5168187;27;19923;-47
2022/07/24 13:00:22;;;;;;;;;;;21.80;57.50;;;;;;5162830;27;19931;-51
2022/07/24 13:02:49;;;;;;;;;;;21.40;55.70;;;;;;5162839;27;20263;-47
2022/07/24 13:05:14;;;;;;;;;;;21.00;54.60;;;;;;5168171;27;19956;-45
2022/07/24 13:07:40;;;;;;;;;;;20.90;53.70;;;;;;5143719;27;19922;-49
2022/07/24 13:10:06;;;;;;;;;;;20.70;52.70;;;;;;5162250;27;19923;-49
2022/07/24 13:12:32;;;;;;;;;;;20.50;52.60;;;;;;5165936;27;19931;-48
2022/07/24 13:14:58;;;;;;;;;;;20.50;52.10;;;;;;5161864;27;19934;-53
2022/07/24 13:17:23;;;;;;;;;;;20.40;52.00;;;;;;5168042;27;19923;-49
2022/07/24 13:19:50;;;;;;;;;;;20.40;51.70;;;;;;5162829;27;19922;-47
2022/07/24 13:22:16;;;;;;;;;;;20.50;51.50;;;;;;5162674;27;20404;-48
2022/07/24 13:24:42;;;;;;;;;;;20.30;51.60;;;;;;5167912;27;19987;-49
2022/07/24 13:27:09;;;;;;;;;;;20.30;51.60;;;;;;5162430;27;19955;-46
2022/07/24 13:29:35;;;;;;;;;;;20.20;51.60;;;;;;5161148;27;20175;-46
2022/07/24 13:32:01;;;;;;;;;;;20.30;51.40;;;;;;5166594;27;19922;-50
2022/07/24 13:34:28;;;;;;;;;;;20.10;51.50;;;;;;5162096;27;20044;-48
2022/07/24 13:36:54;;;;;;;;;;;20.00;51.70;;;;;;5163540;27;19926;-46
2022/07/24 13:39:20;;;;;;;;;;;20.00;51.80;;;;;;5143704;27;19937;-46
2022/07/24 13:41:46;;;;;;;;;;;20.70;55.70;;;;;;5162094;27;19990;-47
2022/07/24 13:44:12;;;;;;;;;;;21.50;57.20;;;;;;5166832;27;19922;-46
2022/07/24 13:46:37;;;;;;;;;;;21.90;56.10;;;;;;5161277;27;19946;-48
2022/07/24 13:49:04;;;;;;;;;;;21.30;54.80;;;;;;5160431;27;20124;-46
2022/07/24 13:51:30;;;;;;;;;;;21.00;53.80;;;;;;5166945;27;19937;-45
2022/07/24 13:53:56;;;;;;;;;;;20.80;52.90;;;;;;5162118;27;19922;-46
2022/07/24 13:56:23;;;;;;;;;;;20.60;52.60;;;;;;5166419;27;19938;-55
2022/07/24 13:58:49;;;;;;;;;;;20.60;51.90;;;;;;5164519;27;20320;-45
2022/07/24 14:01:17;;;;;;;;;;;20.40;52.00;;;;;;5161640;27;19931;-45
2022/07/24 14:03:44;;;;;;;;;;;20.30;52.00;;;;;;5167429;27;19933;-46
2022/07/24 14:06:09;;;;;;;;;;;20.30;51.70;;;;;;5160915;27;19929;-48
2022/07/24 14:08:36;;;;;;;;;;;20.20;51.80;;;;;;5160347;27;19923;-46
2022/07/24 14:11:02;;;;;;;;;;;20.20;51.60;;;;;;5167192;27;19933;-49
2022/07/24 14:13:27;;;;;;;;;;;20.20;51.50;;;;;;5161930;27;20309;-45